Kennedale's Hourly Summary for Sunday, July 8, 2018
Hour Temp
(f)
RH
(%)
Solar Rad.
(MJ/m2)
Rainfall
(in)
Wind
(mph)
7/8/2018 12:00 AM 81 60 0 0 3.06
7/8/2018 1:00 AM 79 67 0 0 2.13
7/8/2018 2:00 AM 78 74 0 0 3.3
7/8/2018 3:00 AM 76 80 0 0 2.69
7/8/2018 4:00 AM 75 81 0 0 1.12
7/8/2018 5:00 AM 73 85 0 0 0.78
7/8/2018 6:00 AM 73 87 0.01 0 1.12
7/8/2018 7:00 AM 75 83 0.2 0 0.95
7/8/2018 8:00 AM 79 71 0.56 0 1.74
7/8/2018 9:00 AM 82 64 1.17 0 4.59
7/8/2018 10:00 AM 85 57 1.81 0 4.97
7/8/2018 11:00 AM 88 51 2.22 0 4.7
7/8/2018 12:00 PM 90 48 2.31 0 4.75
7/8/2018 1:00 PM 89 47 1.2 0 5.42
7/8/2018 2:00 PM 92 41 1.94 0 5.31
7/8/2018 3:00 PM 94 36 2.66 0 6.26
7/8/2018 4:00 PM 94 35 1.71 0 6.32
7/8/2018 5:00 PM 89 48 0.68 0 8.33
7/8/2018 6:00 PM 88 50 0.77 0 7.61
7/8/2018 7:00 PM 86 55 0.47 0 7.83
7/8/2018 8:00 PM 83 61 0.06 0 6.66
7/8/2018 9:00 PM 81 64 0 0 4.25
7/8/2018 10:00 PM 79 70 0 0 2.57
7/8/2018 11:00 PM 77 74 0 0 1.51
Data Summary 82 62 17.77 0.00 4.08